sensor_id;sensor_type;location;lat;lon;timestamp;temperature;humidity
23738;DHT22;12049;51.068;3.688;2022-07-15T00:01:10;19.20;99.90
23738;DHT22;12049;51.068;3.688;2022-07-15T00:03:36;19.20;99.90
23738;DHT22;12049;51.068;3.688;2022-07-15T00:06:02;19.20;99.90
23738;DHT22;12049;51.068;3.688;2022-07-15T00:08:27;19.20;99.90
23738;DHT22;12049;51.068;3.688;2022-07-15T00:10:54;19.20;99.90
23738;DHT22;12049;51.068;3.688;2022-07-15T00:13:19;19.20;99.90
23738;DHT22;12049;51.068;3.688;2022-07-15T00:15:45;19.10;99.90
23738;DHT22;12049;51.068;3.688;2022-07-15T00:18:11;19.10;99.90
23738;DHT22;12049;51.068;3.688;2022-07-15T00:20:37;19.00;99.90
23738;DHT22;12049;51.068;3.688;2022-07-15T00:23:05;19.00;99.90
23738;DHT22;12049;51.068;3.688;2022-07-15T00:25:31;19.00;99.90
23738;DHT22;12049;51.068;3.688;2022-07-15T00:28:08;18.90;99.90
23738;DHT22;12049;51.068;3.688;2022-07-15T00:30:40;18.90;99.90
23738;DHT22;12049;51.068;3.688;2022-07-15T00:33:07;18.90;99.90
23738;DHT22;12049;51.068;3.688;2022-07-15T00:35:36;18.80;99.90
23738;DHT22;12049;51.068;3.688;2022-07-15T00:38:03;18.90;99.90
23738;DHT22;12049;51.068;3.688;2022-07-15T00:40:29;18.80;99.90
23738;DHT22;12049;51.068;3.688;2022-07-15T00:42:58;18.80;99.90
23738;DHT22;12049;51.068;3.688;2022-07-15T00:45:25;18.80;99.90
23738;DHT22;12049;51.068;3.688;2022-07-15T00:47:53;18.70;99.90
23738;DHT22;12049;51.068;3.688;2022-07-15T00:50:20;18.70;99.90
23738;DHT22;12049;51.068;3.688;2022-07-15T00:53:00;18.70;99.90
23738;DHT22;12049;51.068;3.688;2022-07-15T00:55:30;18.70;99.90
23738;DHT22;12049;51.068;3.688;2022-07-15T00:58:00;18.60;99.90
23738;DHT22;12049;51.068;3.688;2022-07-15T01:00:27;18.60;99.90
23738;DHT22;12049;51.068;3.688;2022-07-15T01:02:53;18.60;99.90
23738;DHT22;12049;51.068;3.688;2022-07-15T01:05:21;18.50;99.90
23738;DHT22;12049;51.068;3.688;2022-07-15T01:07:48;18.50;99.90
23738;DHT22;12049;51.068;3.688;2022-07-15T01:10:18;18.50;99.90
23738;DHT22;12049;51.068;3.688;2022-07-15T01:12:45;18.40;99.90
23738;DHT22;12049;51.068;3.688;2022-07-15T01:15:12;18.30;99.90
23738;DHT22;12049;51.068;3.688;2022-07-15T01:17:37;18.30;99.90
23738;DHT22;12049;51.068;3.688;2022-07-15T01:20:05;18.20;99.90
23738;DHT22;12049;51.068;3.688;2022-07-15T01:22:31;18.20;99.90
23738;DHT22;12049;51.068;3.688;2022-07-15T01:24:57;18.10;99.90
23738;DHT22;12049;51.068;3.688;2022-07-15T01:27:24;18.10;99.90
23738;DHT22;12049;51.068;3.688;2022-07-15T01:29:51;18.00;99.90
23738;DHT22;12049;51.068;3.688;2022-07-15T01:32:17;18.00;99.90
23738;DHT22;12049;51.068;3.688;2022-07-15T01:34:42;17.90;99.90
23738;DHT22;12049;51.068;3.688;2022-07-15T01:37:08;17.90;99.90
23738;DHT22;12049;51.068;3.688;2022-07-15T01:39:34;17.90;99.90
23738;DHT22;12049;51.068;3.688;2022-07-15T01:41:59;17.80;99.90
23738;DHT22;12049;51.068;3.688;2022-07-15T01:44:25;17.80;99.90
23738;DHT22;12049;51.068;3.688;2022-07-15T01:46:54;17.80;99.90
23738;DHT22;12049;51.068;3.688;2022-07-15T01:49:20;17.80;99.90
23738;DHT22;12049;51.068;3.688;2022-07-15T01:51:56;17.80;99.90
23738;DHT22;12049;51.068;3.688;2022-07-15T01:54:26;17.80;99.90
23738;DHT22;12049;51.068;3.688;2022-07-15T01:56:55;17.70;99.90
23738;DHT22;12049;51.068;3.688;2022-07-15T01:59:21;17.70;99.90
23738;DHT22;12049;51.068;3.688;2022-07-15T02:01:48;17.70;99.90
23738;DHT22;12049;51.068;3.688;2022-07-15T02:04:15;17.70;99.90
23738;DHT22;12049;51.068;3.688;2022-07-15T02:06:41;17.60;99.90
23738;DHT22;12049;51.068;3.688;2022-07-15T02:09:07;17.60;99.90
23738;DHT22;12049;51.068;3.688;2022-07-15T02:11:34;17.60;99.90
23738;DHT22;12049;51.068;3.688;2022-07-15T02:13:59;17.60;99.90
23738;DHT22;12049;51.068;3.688;2022-07-15T02:16:27;17.60;99.90
23738;DHT22;12049;51.068;3.688;2022-07-15T02:18:56;17.60;99.90
23738;DHT22;12049;51.068;3.688;2022-07-15T02:21:23;17.60;99.90
23738;DHT22;12049;51.068;3.688;2022-07-15T02:23:49;17.60;99.90
23738;DHT22;12049;51.068;3.688;2022-07-15T02:26:15;17.50;99.90
23738;DHT22;12049;51.068;3.688;2022-07-15T02:28:41;17.50;99.90
23738;DHT22;12049;51.068;3.688;2022-07-15T02:31:06;17.50;99.90
23738;DHT22;12049;51.068;3.688;2022-07-15T02:33:32;17.40;99.90
23738;DHT22;12049;51.068;3.688;2022-07-15T02:35:58;17.40;99.90
23738;DHT22;12049;51.068;3.688;2022-07-15T02:38:24;17.30;99.90
23738;DHT22;12049;51.068;3.688;2022-07-15T02:40:49;17.30;99.90
23738;DHT22;12049;51.068;3.688;2022-07-15T02:43:15;17.30;99.90
23738;DHT22;12049;51.068;3.688;2022-07-15T02:45:41;17.30;99.90
23738;DHT22;12049;51.068;3.688;2022-07-15T02:48:08;17.20;99.90
23738;DHT22;12049;51.068;3.688;2022-07-15T02:50:34;17.20;99.90
23738;DHT22;12049;51.068;3.688;2022-07-15T02:53:01;17.20;99.90
23738;DHT22;12049;51.068;3.688;2022-07-15T02:55:26;17.20;99.90
23738;DHT22;12049;51.068;3.688;2022-07-15T02:57:52;17.20;99.90
23738;DHT22;12049;51.068;3.688;2022-07-15T03:00:18;17.10;99.90
23738;DHT22;12049;51.068;3.688;2022-07-15T03:02:45;17.10;99.90
23738;DHT22;12049;51.068;3.688;2022-07-15T03:05:12;17.00;99.90
23738;DHT22;12049;51.068;3.688;2022-07-15T03:07:38;17.10;99.90
23738;DHT22;12049;51.068;3.688;2022-07-15T03:10:06;17.10;99.90
23738;DHT22;12049;51.068;3.688;2022-07-15T03:12:31;17.10;99.90
23738;DHT22;12049;51.068;3.688;2022-07-15T03:14:58;17.00;99.90
23738;DHT22;12049;51.068;3.688;2022-07-15T03:17:24;17.00;99.90
23738;DHT22;12049;51.068;3.688;2022-07-15T03:19:50;17.00;99.90
23738;DHT22;12049;51.068;3.688;2022-07-15T03:22:15;17.00;99.90
23738;DHT22;12049;51.068;3.688;2022-07-15T03:24:41;17.00;99.90
23738;DHT22;12049;51.068;3.688;2022-07-15T03:27:07;17.00;99.90
23738;DHT22;12049;51.068;3.688;2022-07-15T03:29:34;17.00;99.90
23738;DHT22;12049;51.068;3.688;2022-07-15T03:32:00;16.90;99.90
23738;DHT22;12049;51.068;3.688;2022-07-15T03:34:26;16.90;99.90
23738;DHT22;12049;51.068;3.688;2022-07-15T03:36:52;16.90;99.90
23738;DHT22;12049;51.068;3.688;2022-07-15T03:39:18;16.90;99.90
23738;DHT22;12049;51.068;3.688;2022-07-15T03:41:44;16.90;99.90
23738;DHT22;12049;51.068;3.688;2022-07-15T03:44:12;16.90;99.90
23738;DHT22;12049;51.068;3.688;2022-07-15T03:46:39;16.80;99.90
23738;DHT22;12049;51.068;3.688;2022-07-15T03:49:05;16.80;99.90
23738;DHT22;12049;51.068;3.688;2022-07-15T03:51:30;16.70;99.90
23738;DHT22;12049;51.068;3.688;2022-07-15T03:54:01;16.70;99.90
23738;DHT22;12049;51.068;3.688;2022-07-15T03:56:28;16.70;99.90
23738;DHT22;12049;51.068;3.688;2022-07-15T03:58:54;16.70;99.90
23738;DHT22;12049;51.068;3.688;2022-07-15T04:01:20;16.70;99.90
23738;DHT22;12049;51.068;3.688;2022-07-15T04:03:50;16.70;99.90
23738;DHT22;12049;51.068;3.688;2022-07-15T04:06:16;16.80;99.90
23738;DHT22;12049;51.068;3.688;2022-07-15T04:08:43;16.80;99.90
23738;DHT22;12049;51.068;3.688;2022-07-15T04:11:09;16.80;99.90
23738;DHT22;12049;51.068;3.688;2022-07-15T04:13:38;16.80;99.90
23738;DHT22;12049;51.068;3.688;2022-07-15T04:16:06;16.80;99.90
23738;DHT22;12049;51.068;3.688;2022-07-15T04:18:32;16.80;99.90
23738;DHT22;12049;51.068;3.688;2022-07-15T04:21:01;16.80;99.90
23738;DHT22;12049;51.068;3.688;2022-07-15T04:23:27;16.90;99.90
23738;DHT22;12049;51.068;3.688;2022-07-15T04:25:53;16.90;99.90
23738;DHT22;12049;51.068;3.688;2022-07-15T04:28:20;16.90;99.90
23738;DHT22;12049;51.068;3.688;2022-07-15T04:30:46;17.00;99.90
23738;DHT22;12049;51.068;3.688;2022-07-15T04:33:12;17.00;99.90
23738;DHT22;12049;51.068;3.688;2022-07-15T04:35:37;17.10;99.90
23738;DHT22;12049;51.068;3.688;2022-07-15T04:38:04;17.10;99.90
23738;DHT22;12049;51.068;3.688;2022-07-15T04:40:30;17.10;99.90
23738;DHT22;12049;51.068;3.688;2022-07-15T04:42:58;17.10;99.90
23738;DHT22;12049;51.068;3.688;2022-07-15T04:45:24;17.20;99.90
23738;DHT22;12049;51.068;3.688;2022-07-15T04:47:50;17.20;99.90
23738;DHT22;12049;51.068;3.688;2022-07-15T04:50:15;17.30;99.90
23738;DHT22;12049;51.068;3.688;2022-07-15T04:53:00;17.40;99.90
23738;DHT22;12049;51.068;3.688;2022-07-15T04:55:25;17.50;99.90
23738;DHT22;12049;51.068;3.688;2022-07-15T04:57:52;17.50;99.90
23738;DHT22;12049;51.068;3.688;2022-07-15T05:00:18;17.60;99.90
23738;DHT22;12049;51.068;3.688;2022-07-15T05:02:44;17.60;99.90
23738;DHT22;12049;51.068;3.688;2022-07-15T05:05:10;17.60;99.90
23738;DHT22;12049;51.068;3.688;2022-07-15T05:07:35;17.60;99.90
23738;DHT22;12049;51.068;3.688;2022-07-15T05:10:06;17.70;99.90
23738;DHT22;12049;51.068;3.688;2022-07-15T05:12:32;17.70;99.90
23738;DHT22;12049;51.068;3.688;2022-07-15T05:14:57;17.80;99.90
23738;DHT22;12049;51.068;3.688;2022-07-15T05:17:24;17.80;99.90
23738;DHT22;12049;51.068;3.688;2022-07-15T05:19:50;17.80;99.90
23738;DHT22;12049;51.068;3.688;2022-07-15T05:22:16;17.90;99.90
23738;DHT22;12049;51.068;3.688;2022-07-15T05:24:42;17.90;99.90
23738;DHT22;12049;51.068;3.688;2022-07-15T05:27:08;17.90;99.90
23738;DHT22;12049;51.068;3.688;2022-07-15T05:29:33;18.00;99.90
23738;DHT22;12049;51.068;3.688;2022-07-15T05:31:59;18.10;99.90
23738;DHT22;12049;51.068;3.688;2022-07-15T05:34:24;18.10;99.90
23738;DHT22;12049;51.068;3.688;2022-07-15T05:36:50;18.20;99.90
23738;DHT22;12049;51.068;3.688;2022-07-15T05:39:16;18.30;99.90
23738;DHT22;12049;51.068;3.688;2022-07-15T05:41:41;18.30;99.90
23738;DHT22;12049;51.068;3.688;2022-07-15T05:44:07;18.50;99.90
23738;DHT22;12049;51.068;3.688;2022-07-15T05:46:33;18.70;99.90
23738;DHT22;12049;51.068;3.688;2022-07-15T05:48:58;19.00;99.90
23738;DHT22;12049;51.068;3.688;2022-07-15T05:51:24;19.20;99.90
23738;DHT22;12049;51.068;3.688;2022-07-15T05:53:49;19.30;99.90
23738;DHT22;12049;51.068;3.688;2022-07-15T05:56:15;19.30;99.90
23738;DHT22;12049;51.068;3.688;2022-07-15T05:58:41;19.30;99.90
23738;DHT22;12049;51.068;3.688;2022-07-15T06:01:06;19.40;99.90
23738;DHT22;12049;51.068;3.688;2022-07-15T06:03:32;19.60;99.90
23738;DHT22;12049;51.068;3.688;2022-07-15T06:05:58;20.00;99.90
23738;DHT22;12049;51.068;3.688;2022-07-15T06:08:24;21.10;99.90
23738;DHT22;12049;51.068;3.688;2022-07-15T06:10:49;22.50;99.90
23738;DHT22;12049;51.068;3.688;2022-07-15T06:13:15;23.80;99.90
23738;DHT22;12049;51.068;3.688;2022-07-15T06:15:41;25.00;99.90
23738;DHT22;12049;51.068;3.688;2022-07-15T06:18:06;26.00;99.90
23738;DHT22;12049;51.068;3.688;2022-07-15T06:20:32;26.80;99.90
23738;DHT22;12049;51.068;3.688;2022-07-15T06:22:58;27.50;99.90
23738;DHT22;12049;51.068;3.688;2022-07-15T06:25:24;28.10;99.90
23738;DHT22;12049;51.068;3.688;2022-07-15T06:27:50;28.30;99.90
23738;DHT22;12049;51.068;3.688;2022-07-15T06:30:15;28.50;99.90
23738;DHT22;12049;51.068;3.688;2022-07-15T06:32:41;28.60;99.40
23738;DHT22;12049;51.068;3.688;2022-07-15T06:35:07;28.30;99.10
23738;DHT22;12049;51.068;3.688;2022-07-15T06:37:33;27.50;99.60
23738;DHT22;12049;51.068;3.688;2022-07-15T06:39:58;26.60;99.90
23738;DHT22;12049;51.068;3.688;2022-07-15T06:42:27;25.70;99.90
23738;DHT22;12049;51.068;3.688;2022-07-15T06:44:52;25.00;99.90
23738;DHT22;12049;51.068;3.688;2022-07-15T06:47:18;24.40;99.90
23738;DHT22;12049;51.068;3.688;2022-07-15T06:49:44;24.00;99.90
23738;DHT22;12049;51.068;3.688;2022-07-15T06:52:09;23.70;99.90
23738;DHT22;12049;51.068;3.688;2022-07-15T06:54:35;23.40;99.90
23738;DHT22;12049;51.068;3.688;2022-07-15T06:57:01;23.20;99.90
23738;DHT22;12049;51.068;3.688;2022-07-15T06:59:29;22.90;99.90
23738;DHT22;12049;51.068;3.688;2022-07-15T07:01:55;22.60;99.90
23738;DHT22;12049;51.068;3.688;2022-07-15T07:04:21;22.50;99.90
23738;DHT22;12049;51.068;3.688;2022-07-15T07:06:47;22.30;99.90
23738;DHT22;12049;51.068;3.688;2022-07-15T07:09:13;22.20;99.90
23738;DHT22;12049;51.068;3.688;2022-07-15T07:11:39;22.00;99.90
23738;DHT22;12049;51.068;3.688;2022-07-15T07:14:06;22.10;99.90
23738;DHT22;12049;51.068;3.688;2022-07-15T07:16:32;22.10;99.90
23738;DHT22;12049;51.068;3.688;2022-07-15T07:18:57;22.00;99.90
23738;DHT22;12049;51.068;3.688;2022-07-15T07:21:23;22.00;99.90
23738;DHT22;12049;51.068;3.688;2022-07-15T07:23:49;21.90;99.90
23738;DHT22;12049;51.068;3.688;2022-07-15T07:26:15;21.90;99.90
23738;DHT22;12049;51.068;3.688;2022-07-15T07:28:41;21.90;99.90
23738;DHT22;12049;51.068;3.688;2022-07-15T07:31:08;21.80;99.90
23738;DHT22;12049;51.068;3.688;2022-07-15T07:33:34;21.70;99.90
23738;DHT22;12049;51.068;3.688;2022-07-15T07:36:00;21.80;99.90
23738;DHT22;12049;51.068;3.688;2022-07-15T07:38:26;21.80;99.90
23738;DHT22;12049;51.068;3.688;2022-07-15T07:40:52;21.80;99.90
23738;DHT22;12049;51.068;3.688;2022-07-15T07:43:19;21.90;99.90
23738;DHT22;12049;51.068;3.688;2022-07-15T07:45:46;22.00;99.90
23738;DHT22;12049;51.068;3.688;2022-07-15T07:48:12;22.30;99.90
23738;DHT22;12049;51.068;3.688;2022-07-15T07:50:38;23.10;99.90
23738;DHT22;12049;51.068;3.688;2022-07-15T07:53:04;24.70;99.90
23738;DHT22;12049;51.068;3.688;2022-07-15T07:55:30;26.10;99.90
23738;DHT22;12049;51.068;3.688;2022-07-15T07:57:58;27.40;98.60
23738;DHT22;12049;51.068;3.688;2022-07-15T08:00:25;28.60;97.20
23738;DHT22;12049;51.068;3.688;2022-07-15T08:02:55;29.80;96.10
23738;DHT22;12049;51.068;3.688;2022-07-15T08:05:21;30.70;93.40
23738;DHT22;12049;51.068;3.688;2022-07-15T08:07:49;31.40;92.50
23738;DHT22;12049;51.068;3.688;2022-07-15T08:10:16;32.10;91.50
23738;DHT22;12049;51.068;3.688;2022-07-15T08:12:42;32.60;88.80
23738;DHT22;12049;51.068;3.688;2022-07-15T08:15:10;32.90;87.40
23738;DHT22;12049;51.068;3.688;2022-07-15T08:17:37;33.40;87.30
23738;DHT22;12049;51.068;3.688;2022-07-15T08:20:05;33.80;85.70
23738;DHT22;12049;51.068;3.688;2022-07-15T08:22:31;34.40;80.30
23738;DHT22;12049;51.068;3.688;2022-07-15T08:24:56;34.30;83.20
23738;DHT22;12049;51.068;3.688;2022-07-15T08:27:22;34.50;83.20
23738;DHT22;12049;51.068;3.688;2022-07-15T08:29:48;34.70;82.10
23738;DHT22;12049;51.068;3.688;2022-07-15T08:32:14;35.10;81.70
23738;DHT22;12049;51.068;3.688;2022-07-15T08:34:39;35.50;80.90
23738;DHT22;12049;51.068;3.688;2022-07-15T08:37:07;35.70;79.70
23738;DHT22;12049;51.068;3.688;2022-07-15T08:39:35;35.80;78.90
23738;DHT22;12049;51.068;3.688;2022-07-15T08:42:03;35.80;78.40
23738;DHT22;12049;51.068;3.688;2022-07-15T08:44:29;35.80;76.20
23738;DHT22;12049;51.068;3.688;2022-07-15T08:47:02;35.90;75.60
23738;DHT22;12049;51.068;3.688;2022-07-15T08:49:30;36.20;77.30
23738;DHT22;12049;51.068;3.688;2022-07-15T08:52:00;36.20;73.20
23738;DHT22;12049;51.068;3.688;2022-07-15T08:54:26;36.50;74.20
23738;DHT22;12049;51.068;3.688;2022-07-15T08:56:53;36.70;72.60
23738;DHT22;12049;51.068;3.688;2022-07-15T08:59:18;36.90;72.30
23738;DHT22;12049;51.068;3.688;2022-07-15T09:01:46;36.80;72.50
23738;DHT22;12049;51.068;3.688;2022-07-15T09:04:13;37.00;72.40
23738;DHT22;12049;51.068;3.688;2022-07-15T09:06:43;36.70;72.00
23738;DHT22;12049;51.068;3.688;2022-07-15T09:09:31;36.80;72.60
23738;DHT22;12049;51.068;3.688;2022-07-15T09:12:08;36.90;70.00
23738;DHT22;12049;51.068;3.688;2022-07-15T09:14:36;36.60;70.50
23738;DHT22;12049;51.068;3.688;2022-07-15T09:19:59;34.80;73.40
23738;DHT22;12049;51.068;3.688;2022-07-15T09:22:28;33.30;74.80
23738;DHT22;12049;51.068;3.688;2022-07-15T09:25:12;33.10;77.90
23738;DHT22;12049;51.068;3.688;2022-07-15T09:27:40;33.70;76.40
23738;DHT22;12049;51.068;3.688;2022-07-15T09:30:26;34.00;76.40
23738;DHT22;12049;51.068;3.688;2022-07-15T09:33:19;34.80;73.30
23738;DHT22;12049;51.068;3.688;2022-07-15T09:36:15;35.30;72.70
23738;DHT22;12049;51.068;3.688;2022-07-15T09:38:47;35.30;71.60
23738;DHT22;12049;51.068;3.688;2022-07-15T09:46:22;35.10;73.00
23738;DHT22;12049;51.068;3.688;2022-07-15T09:48:49;35.30;72.40
23738;DHT22;12049;51.068;3.688;2022-07-15T09:51:16;35.10;73.40
23738;DHT22;12049;51.068;3.688;2022-07-15T09:53:42;35.00;76.00
23738;DHT22;12049;51.068;3.688;2022-07-15T09:56:15;34.90;76.70
23738;DHT22;12049;51.068;3.688;2022-07-15T09:58:43;34.70;75.30
23738;DHT22;12049;51.068;3.688;2022-07-15T10:01:10;34.70;75.00
23738;DHT22;12049;51.068;3.688;2022-07-15T10:03:37;34.50;74.40
23738;DHT22;12049;51.068;3.688;2022-07-15T10:06:03;33.90;77.30
23738;DHT22;12049;51.068;3.688;2022-07-15T10:08:30;33.80;78.90
23738;DHT22;12049;51.068;3.688;2022-07-15T10:10:57;34.10;79.90
23738;DHT22;12049;51.068;3.688;2022-07-15T10:16:07;33.40;76.40
23738;DHT22;12049;51.068;3.688;2022-07-15T10:30:06;32.10;80.00
23738;DHT22;12049;51.068;3.688;2022-07-15T10:33:07;32.60;79.40
23738;DHT22;12049;51.068;3.688;2022-07-15T10:35:41;32.80;80.90
23738;DHT22;12049;51.068;3.688;2022-07-15T10:43:53;33.10;78.20
23738;DHT22;12049;51.068;3.688;2022-07-15T10:46:25;33.00;79.20
23738;DHT22;12049;51.068;3.688;2022-07-15T10:54:01;33.70;75.60
23738;DHT22;12049;51.068;3.688;2022-07-15T10:56:29;33.60;76.90
23738;DHT22;12049;51.068;3.688;2022-07-15T10:59:16;33.40;76.50
23738;DHT22;12049;51.068;3.688;2022-07-15T11:01:50;32.80;78.10
23738;DHT22;12049;51.068;3.688;2022-07-15T11:04:35;31.90;79.50
23738;DHT22;12049;51.068;3.688;2022-07-15T11:12:24;29.50;83.80
23738;DHT22;12049;51.068;3.688;2022-07-15T11:14:55;29.00;85.00
23738;DHT22;12049;51.068;3.688;2022-07-15T11:20:31;28.90;84.60
23738;DHT22;12049;51.068;3.688;2022-07-15T11:22:58;29.00;86.10
23738;DHT22;12049;51.068;3.688;2022-07-15T11:25:25;28.70;87.90
23738;DHT22;12049;51.068;3.688;2022-07-15T11:28:11;28.50;86.80
23738;DHT22;12049;51.068;3.688;2022-07-15T11:30:48;28.20;87.70
23738;DHT22;12049;51.068;3.688;2022-07-15T11:33:19;28.10;88.10
23738;DHT22;12049;51.068;3.688;2022-07-15T11:38:12;27.60;89.90
23738;DHT22;12049;51.068;3.688;2022-07-15T11:40:43;27.30;89.60
23738;DHT22;12049;51.068;3.688;2022-07-15T11:43:27;27.10;90.60
23738;DHT22;12049;51.068;3.688;2022-07-15T11:46:12;26.90;91.00
23738;DHT22;12049;51.068;3.688;2022-07-15T11:48:38;26.70;90.70
23738;DHT22;12049;51.068;3.688;2022-07-15T11:51:06;26.60;90.90
23738;DHT22;12049;51.068;3.688;2022-07-15T11:53:58;26.60;91.60
23738;DHT22;12049;51.068;3.688;2022-07-15T11:56:24;26.90;92.20
23738;DHT22;12049;51.068;3.688;2022-07-15T11:58:57;27.20;91.20
23738;DHT22;12049;51.068;3.688;2022-07-15T12:01:25;27.80;91.00
23738;DHT22;12049;51.068;3.688;2022-07-15T12:03:55;28.40;89.70
23738;DHT22;12049;51.068;3.688;2022-07-15T12:06:32;28.70;87.00
23738;DHT22;12049;51.068;3.688;2022-07-15T12:09:00;28.90;89.80
23738;DHT22;12049;51.068;3.688;2022-07-15T12:11:32;28.80;88.40
23738;DHT22;12049;51.068;3.688;2022-07-15T12:19:08;28.00;87.60
23738;DHT22;12049;51.068;3.688;2022-07-15T12:21:37;27.50;89.60
23738;DHT22;12049;51.068;3.688;2022-07-15T12:24:14;27.20;90.00
23738;DHT22;12049;51.068;3.688;2022-07-15T12:26:55;26.90;89.60
23738;DHT22;12049;51.068;3.688;2022-07-15T12:29:22;27.00;89.90
23738;DHT22;12049;51.068;3.688;2022-07-15T12:31:53;27.60;91.30
23738;DHT22;12049;51.068;3.688;2022-07-15T12:34:19;28.40;88.90
23738;DHT22;12049;51.068;3.688;2022-07-15T12:36:55;28.90;87.60
23738;DHT22;12049;51.068;3.688;2022-07-15T12:39:21;29.40;85.40
23738;DHT22;12049;51.068;3.688;2022-07-15T12:42:05;29.60;85.30
23738;DHT22;12049;51.068;3.688;2022-07-15T12:44:32;29.70;85.80
23738;DHT22;12049;51.068;3.688;2022-07-15T12:46:59;29.80;83.30
23738;DHT22;12049;51.068;3.688;2022-07-15T12:49:46;29.80;82.00
23738;DHT22;12049;51.068;3.688;2022-07-15T12:52:22;29.60;85.10
23738;DHT22;12049;51.068;3.688;2022-07-15T12:54:50;29.50;85.20
23738;DHT22;12049;51.068;3.688;2022-07-15T13:00:00;29.10;86.70
23738;DHT22;12049;51.068;3.688;2022-07-15T13:02:27;29.00;86.30
23738;DHT22;12049;51.068;3.688;2022-07-15T13:04:53;28.60;86.10
23738;DHT22;12049;51.068;3.688;2022-07-15T13:07:19;28.50;86.20
23738;DHT22;12049;51.068;3.688;2022-07-15T13:09:45;28.60;87.00
23738;DHT22;12049;51.068;3.688;2022-07-15T13:12:12;28.70;86.20
23738;DHT22;12049;51.068;3.688;2022-07-15T13:14:39;28.90;86.00
23738;DHT22;12049;51.068;3.688;2022-07-15T13:17:05;28.80;86.90
23738;DHT22;12049;51.068;3.688;2022-07-15T13:19:31;28.80;86.60
23738;DHT22;12049;51.068;3.688;2022-07-15T13:21:59;28.80;85.90
23738;DHT22;12049;51.068;3.688;2022-07-15T13:24:24;28.50;85.40
23738;DHT22;12049;51.068;3.688;2022-07-15T13:26:50;28.40;89.00
23738;DHT22;12049;51.068;3.688;2022-07-15T13:29:16;28.20;87.30
23738;DHT22;12049;51.068;3.688;2022-07-15T13:31:41;28.10;87.10
23738;DHT22;12049;51.068;3.688;2022-07-15T13:34:07;28.10;86.80
23738;DHT22;12049;51.068;3.688;2022-07-15T13:36:33;28.40;85.60
23738;DHT22;12049;51.068;3.688;2022-07-15T13:38:59;28.00;86.90
23738;DHT22;12049;51.068;3.688;2022-07-15T13:41:25;27.80;90.00
23738;DHT22;12049;51.068;3.688;2022-07-15T13:43:51;27.70;89.20
23738;DHT22;12049;51.068;3.688;2022-07-15T13:46:16;27.70;89.60
23738;DHT22;12049;51.068;3.688;2022-07-15T13:48:42;27.40;87.80
23738;DHT22;12049;51.068;3.688;2022-07-15T13:51:08;27.30;88.90
23738;DHT22;12049;51.068;3.688;2022-07-15T13:53:52;27.20;90.00
23738;DHT22;12049;51.068;3.688;2022-07-15T13:56:19;27.10;90.00
23738;DHT22;12049;51.068;3.688;2022-07-15T13:58:45;27.30;90.10
23738;DHT22;12049;51.068;3.688;2022-07-15T14:01:12;27.30;90.00
23738;DHT22;12049;51.068;3.688;2022-07-15T14:03:38;27.40;88.60
23738;DHT22;12049;51.068;3.688;2022-07-15T14:06:03;27.30;88.80
23738;DHT22;12049;51.068;3.688;2022-07-15T14:08:29;27.30;89.70
23738;DHT22;12049;51.068;3.688;2022-07-15T14:10:55;27.10;89.60
23738;DHT22;12049;51.068;3.688;2022-07-15T14:13:21;27.00;90.00
23738;DHT22;12049;51.068;3.688;2022-07-15T14:15:47;27.00;90.60
23738;DHT22;12049;51.068;3.688;2022-07-15T14:18:12;27.10;88.60
23738;DHT22;12049;51.068;3.688;2022-07-15T14:20:38;27.30;89.50
23738;DHT22;12049;51.068;3.688;2022-07-15T14:23:06;27.30;89.00
23738;DHT22;12049;51.068;3.688;2022-07-15T14:25:35;27.10;89.10
23738;DHT22;12049;51.068;3.688;2022-07-15T14:28:01;27.10;89.60
23738;DHT22;12049;51.068;3.688;2022-07-15T14:30:26;26.90;88.90
23738;DHT22;12049;51.068;3.688;2022-07-15T14:32:52;27.10;89.60
23738;DHT22;12049;51.068;3.688;2022-07-15T14:35:19;27.20;90.50
23738;DHT22;12049;51.068;3.688;2022-07-15T14:37:44;27.40;90.90
23738;DHT22;12049;51.068;3.688;2022-07-15T14:40:10;27.50;90.20
23738;DHT22;12049;51.068;3.688;2022-07-15T14:42:36;27.50;90.00
23738;DHT22;12049;51.068;3.688;2022-07-15T14:45:02;27.50;88.90
23738;DHT22;12049;51.068;3.688;2022-07-15T14:47:28;27.40;88.00
23738;DHT22;12049;51.068;3.688;2022-07-15T14:49:53;27.40;88.90
23738;DHT22;12049;51.068;3.688;2022-07-15T14:52:19;27.40;89.30
23738;DHT22;12049;51.068;3.688;2022-07-15T14:54:45;27.50;88.90
23738;DHT22;12049;51.068;3.688;2022-07-15T14:57:10;27.60;90.60
23738;DHT22;12049;51.068;3.688;2022-07-15T14:59:36;27.60;90.50
23738;DHT22;12049;51.068;3.688;2022-07-15T15:02:04;27.60;90.30
23738;DHT22;12049;51.068;3.688;2022-07-15T15:04:29;27.70;90.20
23738;DHT22;12049;51.068;3.688;2022-07-15T15:06:55;27.70;90.10
23738;DHT22;12049;51.068;3.688;2022-07-15T15:09:21;27.70;90.30
23738;DHT22;12049;51.068;3.688;2022-07-15T15:11:46;27.80;90.20
23738;DHT22;12049;51.068;3.688;2022-07-15T15:14:12;27.70;90.00
23738;DHT22;12049;51.068;3.688;2022-07-15T15:16:38;27.60;90.20
23738;DHT22;12049;51.068;3.688;2022-07-15T15:19:03;27.50;90.00
23738;DHT22;12049;51.068;3.688;2022-07-15T15:21:29;27.50;89.50
23738;DHT22;12049;51.068;3.688;2022-07-15T15:23:55;27.50;90.40
23738;DHT22;12049;51.068;3.688;2022-07-15T15:26:20;27.40;89.50
23738;DHT22;12049;51.068;3.688;2022-07-15T15:28:52;27.50;90.30
23738;DHT22;12049;51.068;3.688;2022-07-15T15:31:18;27.50;89.50
23738;DHT22;12049;51.068;3.688;2022-07-15T15:33:44;27.60;89.40
23738;DHT22;12049;51.068;3.688;2022-07-15T15:36:10;27.60;90.20
23738;DHT22;12049;51.068;3.688;2022-07-15T15:38:36;27.40;89.60
23738;DHT22;12049;51.068;3.688;2022-07-15T15:41:01;27.20;90.20
23738;DHT22;12049;51.068;3.688;2022-07-15T15:43:27;27.20;90.20
23738;DHT22;12049;51.068;3.688;2022-07-15T15:45:53;27.10;90.10
23738;DHT22;12049;51.068;3.688;2022-07-15T15:48:18;27.10;90.40
23738;DHT22;12049;51.068;3.688;2022-07-15T15:50:44;27.20;90.90
23738;DHT22;12049;51.068;3.688;2022-07-15T15:53:10;27.10;90.30
23738;DHT22;12049;51.068;3.688;2022-07-15T15:55:51;27.10;90.80
23738;DHT22;12049;51.068;3.688;2022-07-15T15:58:26;27.00;90.40
23738;DHT22;12049;51.068;3.688;2022-07-15T16:00:54;26.90;90.70
23738;DHT22;12049;51.068;3.688;2022-07-15T16:03:20;26.90;90.40
23738;DHT22;12049;51.068;3.688;2022-07-15T16:05:46;26.80;90.10
23738;DHT22;12049;51.068;3.688;2022-07-15T16:08:11;26.60;89.50
23738;DHT22;12049;51.068;3.688;2022-07-15T16:10:37;26.50;90.10
23738;DHT22;12049;51.068;3.688;2022-07-15T16:13:03;26.30;90.20
23738;DHT22;12049;51.068;3.688;2022-07-15T16:15:28;26.40;90.30
23738;DHT22;12049;51.068;3.688;2022-07-15T16:17:54;26.40;90.00
23738;DHT22;12049;51.068;3.688;2022-07-15T16:20:20;26.50;90.00
23738;DHT22;12049;51.068;3.688;2022-07-15T16:22:45;26.60;89.00
23738;DHT22;12049;51.068;3.688;2022-07-15T16:25:33;26.70;87.10